sensor_id;sensor_type;location;lat;lon;timestamp;P1;durP1;ratioP1;P2;durP2;ratioP2
66802;SDS011;53705;49.860;8.744;2023-03-31T00:00:12;5.20;;;0.85;;
66802;SDS011;53705;49.860;8.744;2023-03-31T00:02:57;5.85;;;1.27;;
66802;SDS011;53705;49.860;8.744;2023-03-31T00:05:43;5.85;;;1.38;;
66802;SDS011;53705;49.860;8.744;2023-03-31T00:08:32;3.35;;;0.30;;
66802;SDS011;53705;49.860;8.744;2023-03-31T00:11:19;5.40;;;2.20;;
66802;SDS011;53705;49.860;8.744;2023-03-31T00:14:04;4.55;;;1.17;;
66802;SDS011;53705;49.860;8.744;2023-03-31T00:16:50;3.53;;;0.93;;
66802;SDS011;53705;49.860;8.744;2023-03-31T00:19:35;8.20;;;1.35;;
66802;SDS011;53705;49.860;8.744;2023-03-31T00:22:21;4.85;;;1.23;;
66802;SDS011;53705;49.860;8.744;2023-03-31T00:25:11;6.22;;;1.10;;
66802;SDS011;53705;49.860;8.744;2023-03-31T00:27:56;4.85;;;0.75;;
66802;SDS011;53705;49.860;8.744;2023-03-31T00:30:41;6.80;;;1.33;;
66802;SDS011;53705;49.860;8.744;2023-03-31T00:33:26;4.05;;;0.77;;
66802;SDS011;53705;49.860;8.744;2023-03-31T00:36:12;6.20;;;1.88;;
66802;SDS011;53705;49.860;8.744;2023-03-31T00:39:04;5.88;;;1.45;;
66802;SDS011;53705;49.860;8.744;2023-03-31T00:41:52;8.15;;;1.42;;
66802;SDS011;53705;49.860;8.744;2023-03-31T00:44:38;4.45;;;1.80;;
66802;SDS011;53705;49.860;8.744;2023-03-31T00:47:44;3.97;;;1.33;;
66802;SDS011;53705;49.860;8.744;2023-03-31T00:50:31;5.95;;;1.33;;
66802;SDS011;53705;49.860;8.744;2023-03-31T00:53:19;5.53;;;1.95;;
66802;SDS011;53705;49.860;8.744;2023-03-31T00:56:08;6.63;;;1.90;;
66802;SDS011;53705;49.860;8.744;2023-03-31T00:58:58;7.53;;;1.75;;
66802;SDS011;53705;49.860;8.744;2023-03-31T01:01:46;7.32;;;1.33;;
66802;SDS011;53705;49.860;8.744;2023-03-31T01:04:34;7.25;;;1.65;;
66802;SDS011;53705;49.860;8.744;2023-03-31T01:07:20;5.45;;;1.25;;
66802;SDS011;53705;49.860;8.744;2023-03-31T01:10:07;6.30;;;1.13;;
66802;SDS011;53705;49.860;8.744;2023-03-31T01:12:53;6.75;;;1.27;;
66802;SDS011;53705;49.860;8.744;2023-03-31T01:15:40;6.25;;;1.48;;
66802;SDS011;53705;49.860;8.744;2023-03-31T01:18:25;9.30;;;1.80;;
66802;SDS011;53705;49.860;8.744;2023-03-31T01:27:03;6.60;;;2.05;;
66802;SDS011;53705;49.860;8.744;2023-03-31T01:29:58;6.57;;;2.10;;
66802;SDS011;53705;49.860;8.744;2023-03-31T01:32:53;7.18;;;0.32;;
66802;SDS011;53705;49.860;8.744;2023-03-31T01:35:54;5.68;;;1.45;;
66802;SDS011;53705;49.860;8.744;2023-03-31T01:38:46;5.10;;;1.73;;
66802;SDS011;53705;49.860;8.744;2023-03-31T01:41:39;8.43;;;2.15;;
66802;SDS011;53705;49.860;8.744;2023-03-31T01:44:28;7.95;;;1.50;;
66802;SDS011;53705;49.860;8.744;2023-03-31T01:47:18;10.20;;;1.38;;
66802;SDS011;53705;49.860;8.744;2023-03-31T01:50:06;7.80;;;1.92;;
66802;SDS011;53705;49.860;8.744;2023-03-31T01:52:54;6.15;;;1.63;;
66802;SDS011;53705;49.860;8.744;2023-03-31T01:55:43;10.02;;;2.88;;
66802;SDS011;53705;49.860;8.744;2023-03-31T01:58:32;7.07;;;1.67;;
66802;SDS011;53705;49.860;8.744;2023-03-31T02:01:19;4.57;;;1.42;;
66802;SDS011;53705;49.860;8.744;2023-03-31T02:04:06;7.63;;;2.30;;
66802;SDS011;53705;49.860;8.744;2023-03-31T02:06:52;8.25;;;2.42;;
66802;SDS011;53705;49.860;8.744;2023-03-31T02:09:40;8.25;;;2.90;;
66802;SDS011;53705;49.860;8.744;2023-03-31T02:12:27;7.70;;;1.63;;
66802;SDS011;53705;49.860;8.744;2023-03-31T02:15:14;6.82;;;1.70;;
66802;SDS011;53705;49.860;8.744;2023-03-31T02:18:02;8.05;;;1.50;;
66802;SDS011;53705;49.860;8.744;2023-03-31T02:20:49;6.95;;;2.15;;
66802;SDS011;53705;49.860;8.744;2023-03-31T02:23:35;4.47;;;1.23;;
66802;SDS011;53705;49.860;8.744;2023-03-31T02:26:22;12.93;;;1.70;;
66802;SDS011;53705;49.860;8.744;2023-03-31T02:29:11;6.70;;;1.73;;
66802;SDS011;53705;49.860;8.744;2023-03-31T02:31:59;7.00;;;1.92;;
66802;SDS011;53705;49.860;8.744;2023-03-31T02:34:44;7.18;;;1.42;;
66802;SDS011;53705;49.860;8.744;2023-03-31T02:37:29;6.70;;;1.83;;
66802;SDS011;53705;49.860;8.744;2023-03-31T02:40:16;5.45;;;2.35;;
66802;SDS011;53705;49.860;8.744;2023-03-31T02:43:02;6.32;;;1.45;;
66802;SDS011;53705;49.860;8.744;2023-03-31T02:45:49;5.13;;;1.33;;
66802;SDS011;53705;49.860;8.744;2023-03-31T02:48:36;5.47;;;1.70;;
66802;SDS011;53705;49.860;8.744;2023-03-31T02:54:26;8.48;;;1.35;;
66802;SDS011;53705;49.860;8.744;2023-03-31T02:57:20;6.25;;;2.05;;
66802;SDS011;53705;49.860;8.744;2023-03-31T03:00:12;7.90;;;1.48;;
66802;SDS011;53705;49.860;8.744;2023-03-31T03:03:07;9.77;;;3.22;;
66802;SDS011;53705;49.860;8.744;2023-03-31T03:06:00;7.20;;;1.83;;
66802;SDS011;53705;49.860;8.744;2023-03-31T03:08:55;4.45;;;1.30;;
66802;SDS011;53705;49.860;8.744;2023-03-31T03:14:27;7.88;;;1.55;;
66802;SDS011;53705;49.860;8.744;2023-03-31T03:17:14;4.78;;;1.35;;
66802;SDS011;53705;49.860;8.744;2023-03-31T03:20:02;6.45;;;1.58;;
66802;SDS011;53705;49.860;8.744;2023-03-31T03:22:52;7.20;;;1.90;;
66802;SDS011;53705;49.860;8.744;2023-03-31T03:25:37;7.55;;;1.75;;
66802;SDS011;53705;49.860;8.744;2023-03-31T03:28:22;5.82;;;1.58;;
66802;SDS011;53705;49.860;8.744;2023-03-31T03:31:07;6.45;;;1.63;;
66802;SDS011;53705;49.860;8.744;2023-03-31T03:33:53;8.13;;;1.92;;
66802;SDS011;53705;49.860;8.744;2023-03-31T03:36:38;4.72;;;1.05;;
66802;SDS011;53705;49.860;8.744;2023-03-31T03:39:25;6.32;;;0.63;;
66802;SDS011;53705;49.860;8.744;2023-03-31T03:42:10;4.38;;;1.80;;
66802;SDS011;53705;49.860;8.744;2023-03-31T03:44:55;7.75;;;0.77;;
66802;SDS011;53705;49.860;8.744;2023-03-31T03:47:40;5.45;;;2.10;;
66802;SDS011;53705;49.860;8.744;2023-03-31T03:50:25;8.20;;;1.20;;
66802;SDS011;53705;49.860;8.744;2023-03-31T03:53:10;10.50;;;1.17;;
66802;SDS011;53705;49.860;8.744;2023-03-31T03:55:56;4.70;;;1.25;;
66802;SDS011;53705;49.860;8.744;2023-03-31T03:58:42;5.55;;;0.95;;
66802;SDS011;53705;49.860;8.744;2023-03-31T04:01:27;4.30;;;1.25;;
66802;SDS011;53705;49.860;8.744;2023-03-31T04:04:12;8.23;;;1.77;;
66802;SDS011;53705;49.860;8.744;2023-03-31T04:06:58;3.85;;;1.10;;
66802;SDS011;53705;49.860;8.744;2023-03-31T04:09:43;5.88;;;1.63;;
66802;SDS011;53705;49.860;8.744;2023-03-31T04:12:29;4.70;;;1.08;;
66802;SDS011;53705;49.860;8.744;2023-03-31T04:15:14;5.03;;;1.17;;
66802;SDS011;53705;49.860;8.744;2023-03-31T04:20:45;6.15;;;1.33;;
66802;SDS011;53705;49.860;8.744;2023-03-31T04:23:37;5.28;;;2.08;;
66802;SDS011;53705;49.860;8.744;2023-03-31T04:26:26;5.60;;;1.35;;
66802;SDS011;53705;49.860;8.744;2023-03-31T04:29:23;6.25;;;2.42;;
66802;SDS011;53705;49.860;8.744;2023-03-31T04:32:09;5.82;;;2.05;;
66802;SDS011;53705;49.860;8.744;2023-03-31T04:34:57;5.93;;;1.27;;
66802;SDS011;53705;49.860;8.744;2023-03-31T04:37:46;7.80;;;1.52;;
66802;SDS011;53705;49.860;8.744;2023-03-31T04:40:32;3.15;;;1.40;;
66802;SDS011;53705;49.860;8.744;2023-03-31T04:43:47;4.78;;;1.50;;
66802;SDS011;53705;49.860;8.744;2023-03-31T04:46:37;3.17;;;1.13;;
66802;SDS011;53705;49.860;8.744;2023-03-31T04:49:44;7.15;;;3.55;;
66802;SDS011;53705;49.860;8.744;2023-03-31T04:52:38;4.82;;;1.30;;
66802;SDS011;53705;49.860;8.744;2023-03-31T04:58:09;3.22;;;1.20;;
66802;SDS011;53705;49.860;8.744;2023-03-31T05:04:43;7.40;;;2.30;;
66802;SDS011;53705;49.860;8.744;2023-03-31T05:07:29;5.30;;;1.45;;
66802;SDS011;53705;49.860;8.744;2023-03-31T05:10:14;5.10;;;1.77;;
66802;SDS011;53705;49.860;8.744;2023-03-31T05:20:26;5.28;;;1.58;;
66802;SDS011;53705;49.860;8.744;2023-03-31T05:23:12;6.45;;;3.17;;
66802;SDS011;53705;49.860;8.744;2023-03-31T05:25:57;4.93;;;0.85;;
66802;SDS011;53705;49.860;8.744;2023-03-31T05:28:43;8.32;;;1.50;;
66802;SDS011;53705;49.860;8.744;2023-03-31T05:31:28;7.95;;;2.40;;
66802;SDS011;53705;49.860;8.744;2023-03-31T05:34:13;8.35;;;1.60;;
66802;SDS011;53705;49.860;8.744;2023-03-31T05:36:59;5.53;;;0.80;;
66802;SDS011;53705;49.860;8.744;2023-03-31T05:39:45;6.70;;;1.95;;
66802;SDS011;53705;49.860;8.744;2023-03-31T05:42:30;10.27;;;2.22;;
66802;SDS011;53705;49.860;8.744;2023-03-31T05:45:15;5.65;;;1.85;;
66802;SDS011;53705;49.860;8.744;2023-03-31T05:48:00;8.38;;;2.38;;
66802;SDS011;53705;49.860;8.744;2023-03-31T05:50:45;8.40;;;2.05;;
66802;SDS011;53705;49.860;8.744;2023-03-31T05:53:32;7.65;;;1.77;;
66802;SDS011;53705;49.860;8.744;2023-03-31T05:56:17;4.70;;;2.13;;
66802;SDS011;53705;49.860;8.744;2023-03-31T05:59:02;9.32;;;0.95;;
66802;SDS011;53705;49.860;8.744;2023-03-31T06:01:47;13.68;;;2.95;;
66802;SDS011;53705;49.860;8.744;2023-03-31T06:04:33;10.10;;;2.65;;
66802;SDS011;53705;49.860;8.744;2023-03-31T06:07:20;6.18;;;1.90;;
66802;SDS011;53705;49.860;8.744;2023-03-31T06:10:09;5.90;;;2.22;;
66802;SDS011;53705;49.860;8.744;2023-03-31T06:12:54;7.38;;;2.33;;
66802;SDS011;53705;49.860;8.744;2023-03-31T06:15:39;8.98;;;3.50;;
66802;SDS011;53705;49.860;8.744;2023-03-31T06:18:25;8.38;;;1.60;;
66802;SDS011;53705;49.860;8.744;2023-03-31T06:21:11;7.15;;;2.17;;
66802;SDS011;53705;49.860;8.744;2023-03-31T06:23:57;10.88;;;3.70;;
66802;SDS011;53705;49.860;8.744;2023-03-31T06:26:44;8.48;;;3.50;;
66802;SDS011;53705;49.860;8.744;2023-03-31T06:29:29;8.40;;;3.15;;
66802;SDS011;53705;49.860;8.744;2023-03-31T06:32:14;7.28;;;3.95;;
66802;SDS011;53705;49.860;8.744;2023-03-31T06:34:59;9.23;;;3.63;;
66802;SDS011;53705;49.860;8.744;2023-03-31T06:37:44;8.70;;;3.58;;
66802;SDS011;53705;49.860;8.744;2023-03-31T06:40:29;11.52;;;3.10;;
66802;SDS011;53705;49.860;8.744;2023-03-31T06:43:16;9.77;;;3.72;;
66802;SDS011;53705;49.860;8.744;2023-03-31T06:46:02;9.00;;;4.05;;
66802;SDS011;53705;49.860;8.744;2023-03-31T06:48:47;10.55;;;2.88;;
66802;SDS011;53705;49.860;8.744;2023-03-31T06:51:32;6.95;;;4.32;;
66802;SDS011;53705;49.860;8.744;2023-03-31T06:54:17;8.50;;;3.53;;
66802;SDS011;53705;49.860;8.744;2023-03-31T06:57:02;7.82;;;3.85;;
66802;SDS011;53705;49.860;8.744;2023-03-31T06:59:48;7.80;;;3.88;;
66802;SDS011;53705;49.860;8.744;2023-03-31T07:02:33;6.32;;;3.40;;
66802;SDS011;53705;49.860;8.744;2023-03-31T07:05:19;7.78;;;3.95;;
66802;SDS011;53705;49.860;8.744;2023-03-31T07:08:09;7.80;;;3.80;;
66802;SDS011;53705;49.860;8.744;2023-03-31T07:10:55;7.97;;;3.45;;
66802;SDS011;53705;49.860;8.744;2023-03-31T07:13:40;7.85;;;4.38;;
66802;SDS011;53705;49.860;8.744;2023-03-31T07:16:26;6.53;;;3.28;;
66802;SDS011;53705;49.860;8.744;2023-03-31T07:19:11;8.27;;;3.78;;
66802;SDS011;53705;49.860;8.744;2023-03-31T07:21:58;10.95;;;3.15;;
66802;SDS011;53705;49.860;8.744;2023-03-31T07:24:43;13.88;;;5.82;;
66802;SDS011;53705;49.860;8.744;2023-03-31T07:27:28;10.13;;;4.70;;
66802;SDS011;53705;49.860;8.744;2023-03-31T07:30:14;14.82;;;5.45;;
66802;SDS011;53705;49.860;8.744;2023-03-31T07:33:00;7.78;;;3.80;;
66802;SDS011;53705;49.860;8.744;2023-03-31T07:35:46;9.35;;;3.80;;
66802;SDS011;53705;49.860;8.744;2023-03-31T07:38:31;10.60;;;4.05;;
66802;SDS011;53705;49.860;8.744;2023-03-31T07:41:17;11.15;;;4.85;;
66802;SDS011;53705;49.860;8.744;2023-03-31T07:44:02;7.43;;;3.35;;
66802;SDS011;53705;49.860;8.744;2023-03-31T07:46:48;7.70;;;4.05;;
66802;SDS011;53705;49.860;8.744;2023-03-31T07:49:35;5.78;;;2.80;;
66802;SDS011;53705;49.860;8.744;2023-03-31T07:52:20;7.97;;;3.88;;
66802;SDS011;53705;49.860;8.744;2023-03-31T07:55:06;7.45;;;3.63;;
66802;SDS011;53705;49.860;8.744;2023-03-31T07:57:52;7.95;;;2.58;;
66802;SDS011;53705;49.860;8.744;2023-03-31T08:00:37;6.88;;;2.42;;
66802;SDS011;53705;49.860;8.744;2023-03-31T08:03:22;4.93;;;2.78;;
66802;SDS011;53705;49.860;8.744;2023-03-31T08:06:09;6.03;;;2.35;;
66802;SDS011;53705;49.860;8.744;2023-03-31T08:08:54;6.30;;;2.47;;
66802;SDS011;53705;49.860;8.744;2023-03-31T08:11:40;4.47;;;1.27;;
66802;SDS011;53705;49.860;8.744;2023-03-31T08:14:25;4.22;;;2.15;;
66802;SDS011;53705;49.860;8.744;2023-03-31T08:17:10;3.17;;;0.52;;
66802;SDS011;53705;49.860;8.744;2023-03-31T08:19:55;3.97;;;1.63;;
66802;SDS011;53705;49.860;8.744;2023-03-31T08:22:41;4.18;;;2.67;;
66802;SDS011;53705;49.860;8.744;2023-03-31T08:25:26;8.27;;;3.10;;
66802;SDS011;53705;49.860;8.744;2023-03-31T08:28:11;3.25;;;1.17;;
66802;SDS011;53705;49.860;8.744;2023-03-31T08:31:01;5.93;;;1.75;;
66802;SDS011;53705;49.860;8.744;2023-03-31T08:33:47;2.60;;;1.40;;
66802;SDS011;53705;49.860;8.744;2023-03-31T08:36:32;4.18;;;1.42;;
66802;SDS011;53705;49.860;8.744;2023-03-31T08:39:18;3.58;;;1.50;;
66802;SDS011;53705;49.860;8.744;2023-03-31T08:42:04;4.40;;;2.72;;
66802;SDS011;53705;49.860;8.744;2023-03-31T08:44:53;2.65;;;2.08;;
66802;SDS011;53705;49.860;8.744;2023-03-31T08:47:41;6.25;;;1.63;;
66802;SDS011;53705;49.860;8.744;2023-03-31T08:50:27;5.43;;;2.80;;
66802;SDS011;53705;49.860;8.744;2023-03-31T08:53:16;5.32;;;2.20;;
66802;SDS011;53705;49.860;8.744;2023-03-31T08:56:05;4.50;;;2.03;;
66802;SDS011;53705;49.860;8.744;2023-03-31T08:58:53;5.25;;;2.25;;
66802;SDS011;53705;49.860;8.744;2023-03-31T09:01:45;5.65;;;1.38;;
66802;SDS011;53705;49.860;8.744;2023-03-31T09:04:40;4.55;;;2.00;;
66802;SDS011;53705;49.860;8.744;2023-03-31T09:07:29;6.97;;;3.15;;
66802;SDS011;53705;49.860;8.744;2023-03-31T09:10:21;8.80;;;2.83;;
66802;SDS011;53705;49.860;8.744;2023-03-31T09:13:23;7.00;;;2.30;;
66802;SDS011;53705;49.860;8.744;2023-03-31T09:16:13;6.60;;;2.70;;
66802;SDS011;53705;49.860;8.744;2023-03-31T09:19:00;4.60;;;2.63;;
66802;SDS011;53705;49.860;8.744;2023-03-31T09:21:46;7.35;;;1.65;;
66802;SDS011;53705;49.860;8.744;2023-03-31T09:24:34;10.07;;;3.22;;
66802;SDS011;53705;49.860;8.744;2023-03-31T09:27:21;5.20;;;2.97;;
66802;SDS011;53705;49.860;8.744;2023-03-31T09:30:11;7.13;;;1.98;;
66802;SDS011;53705;49.860;8.744;2023-03-31T09:33:02;8.52;;;3.15;;
66802;SDS011;53705;49.860;8.744;2023-03-31T09:35:50;6.82;;;2.28;;
66802;SDS011;53705;49.860;8.744;2023-03-31T09:38:36;7.03;;;2.55;;
66802;SDS011;53705;49.860;8.744;2023-03-31T09:41:21;5.70;;;2.90;;
66802;SDS011;53705;49.860;8.744;2023-03-31T09:44:09;6.43;;;2.45;;
66802;SDS011;53705;49.860;8.744;2023-03-31T09:46:58;7.05;;;2.05;;
66802;SDS011;53705;49.860;8.744;2023-03-31T09:49:46;6.22;;;2.25;;
66802;SDS011;53705;49.860;8.744;2023-03-31T09:58:04;6.13;;;2.28;;
66802;SDS011;53705;49.860;8.744;2023-03-31T10:00:57;6.55;;;1.75;;
66802;SDS011;53705;49.860;8.744;2023-03-31T10:03:46;9.75;;;2.35;;
66802;SDS011;53705;49.860;8.744;2023-03-31T10:06:33;5.38;;;1.92;;
66802;SDS011;53705;49.860;8.744;2023-03-31T10:09:25;6.32;;;1.85;;
66802;SDS011;53705;49.860;8.744;2023-03-31T10:12:14;3.65;;;0.40;;
66802;SDS011;53705;49.860;8.744;2023-03-31T10:15:12;3.08;;;1.20;;
66802;SDS011;53705;49.860;8.744;2023-03-31T10:18:00;6.68;;;1.63;;
66802;SDS011;53705;49.860;8.744;2023-03-31T10:20:49;1.70;;;1.00;;
66802;SDS011;53705;49.860;8.744;2023-03-31T10:23:34;2.58;;;0.63;;
66802;SDS011;53705;49.860;8.744;2023-03-31T10:26:20;1.25;;;0.70;;
66802;SDS011;53705;49.860;8.744;2023-03-31T10:29:09;2.40;;;0.80;;
66802;SDS011;53705;49.860;8.744;2023-03-31T10:31:55;4.72;;;1.17;;
66802;SDS011;53705;49.860;8.744;2023-03-31T10:34:46;2.50;;;0.98;;
66802;SDS011;53705;49.860;8.744;2023-03-31T10:37:33;2.22;;;1.23;;
66802;SDS011;53705;49.860;8.744;2023-03-31T10:40:20;4.13;;;0.88;;
66802;SDS011;53705;49.860;8.744;2023-03-31T10:43:08;2.92;;;1.17;;
66802;SDS011;53705;49.860;8.744;2023-03-31T10:45:58;2.53;;;0.73;;
66802;SDS011;53705;49.860;8.744;2023-03-31T10:48:43;4.75;;;1.27;;
66802;SDS011;53705;49.860;8.744;2023-03-31T10:51:28;2.53;;;1.15;;
66802;SDS011;53705;49.860;8.744;2023-03-31T10:54:15;4.18;;;1.63;;
66802;SDS011;53705;49.860;8.744;2023-03-31T10:57:01;4.55;;;1.33;;
66802;SDS011;53705;49.860;8.744;2023-03-31T11:00:02;6.75;;;1.38;;
66802;SDS011;53705;49.860;8.744;2023-03-31T11:02:57;5.20;;;1.40;;
66802;SDS011;53705;49.860;8.744;2023-03-31T11:05:45;3.75;;;1.02;;
66802;SDS011;53705;49.860;8.744;2023-03-31T11:08:36;3.92;;;1.08;;
66802;SDS011;53705;49.860;8.744;2023-03-31T11:11:34;7.85;;;2.00;;
66802;SDS011;53705;49.860;8.744;2023-03-31T11:14:27;8.40;;;1.42;;
66802;SDS011;53705;49.860;8.744;2023-03-31T11:17:18;6.13;;;0.95;;
66802;SDS011;53705;49.860;8.744;2023-03-31T11:20:10;9.38;;;2.90;;
66802;SDS011;53705;49.860;8.744;2023-03-31T11:23:00;9.38;;;2.03;;
66802;SDS011;53705;49.860;8.744;2023-03-31T11:25:47;9.88;;;2.75;;
66802;SDS011;53705;49.860;8.744;2023-03-31T11:28:48;8.30;;;1.52;;
66802;SDS011;53705;49.860;8.744;2023-03-31T11:31:39;6.50;;;1.38;;
66802;SDS011;53705;49.860;8.744;2023-03-31T11:34:31;5.40;;;2.67;;
66802;SDS011;53705;49.860;8.744;2023-03-31T11:37:32;7.78;;;2.50;;
66802;SDS011;53705;49.860;8.744;2023-03-31T11:40:28;7.85;;;1.17;;
66802;SDS011;53705;49.860;8.744;2023-03-31T11:43:16;7.57;;;2.17;;
66802;SDS011;53705;49.860;8.744;2023-03-31T11:46:06;6.82;;;1.35;;
66802;SDS011;53705;49.860;8.744;2023-03-31T11:48:56;5.80;;;0.25;;
66802;SDS011;53705;49.860;8.744;2023-03-31T11:51:43;5.60;;;2.58;;
66802;SDS011;53705;49.860;8.744;2023-03-31T11:54:32;9.23;;;2.15;;
66802;SDS011;53705;49.860;8.744;2023-03-31T11:57:19;5.03;;;1.00;;
66802;SDS011;53705;49.860;8.744;2023-03-31T12:00:08;10.95;;;1.20;;
66802;SDS011;53705;49.860;8.744;2023-03-31T12:03:00;6.80;;;0.90;;
66802;SDS011;53705;49.860;8.744;2023-03-31T12:05:49;6.97;;;1.63;;
66802;SDS011;53705;49.860;8.744;2023-03-31T12:08:36;6.72;;;1.67;;
66802;SDS011;53705;49.860;8.744;2023-03-31T12:11:23;5.82;;;0.77;;
66802;SDS011;53705;49.860;8.744;2023-03-31T12:17:10;12.52;;;1.45;;
66802;SDS011;53705;49.860;8.744;2023-03-31T12:19:58;7.88;;;1.38;;
66802;SDS011;53705;49.860;8.744;2023-03-31T12:22:46;7.07;;;0.60;;
66802;SDS011;53705;49.860;8.744;2023-03-31T12:25:36;5.68;;;0.95;;
66802;SDS011;53705;49.860;8.744;2023-03-31T12:28:22;7.13;;;1.38;;
66802;SDS011;53705;49.860;8.744;2023-03-31T12:31:10;6.88;;;1.15;;
66802;SDS011;53705;49.860;8.744;2023-03-31T12:33:58;4.72;;;2.10;;
66802;SDS011;53705;49.860;8.744;2023-03-31T12:36:48;5.28;;;1.05;;
66802;SDS011;53705;49.860;8.744;2023-03-31T12:39:40;2.78;;;1.17;;
66802;SDS011;53705;49.860;8.744;2023-03-31T12:42:41;5.93;;;1.30;;
66802;SDS011;53705;49.860;8.744;2023-03-31T12:45:28;9.57;;;2.03;;
66802;SDS011;53705;49.860;8.744;2023-03-31T12:48:18;4.32;;;1.27;;
66802;SDS011;53705;49.860;8.744;2023-03-31T12:51:09;6.85;;;1.40;;
66802;SDS011;53705;49.860;8.744;2023-03-31T12:54:03;3.58;;;1.55;;
66802;SDS011;53705;49.860;8.744;2023-03-31T12:57:02;5.07;;;0.77;;
66802;SDS011;53705;49.860;8.744;2023-03-31T13:00:08;2.13;;;1.20;;
66802;SDS011;53705;49.860;8.744;2023-03-31T13:05:57;4.97;;;1.45;;
66802;SDS011;53705;49.860;8.744;2023-03-31T13:08:50;3.53;;;0.98;;
66802;SDS011;53705;49.860;8.744;2023-03-31T13:11:37;7.22;;;1.38;;
66802;SDS011;53705;49.860;8.744;2023-03-31T13:14:24;6.82;;;2.05;;
66802;SDS011;53705;49.860;8.744;2023-03-31T13:17:12;5.22;;;1.42;;
66802;SDS011;53705;49.860;8.744;2023-03-31T13:22:58;6.00;;;1.77;;
66802;SDS011;53705;49.860;8.744;2023-03-31T13:25:45;7.65;;;1.60;;
66802;SDS011;53705;49.860;8.744;2023-03-31T13:28:33;7.22;;;3.20;;
66802;SDS011;53705;49.860;8.744;2023-03-31T13:31:21;4.72;;;1.08;;
66802;SDS011;53705;49.860;8.744;2023-03-31T13:34:06;3.33;;;1.48;;
66802;SDS011;53705;49.860;8.744;2023-03-31T13:36:58;5.85;;;0.90;;
66802;SDS011;53705;49.860;8.744;2023-03-31T13:46:03;4.30;;;0.85;;
66802;SDS011;53705;49.860;8.744;2023-03-31T13:48:53;1.75;;;0.52;;
66802;SDS011;53705;49.860;8.744;2023-03-31T13:51:43;3.50;;;0.57;;
66802;SDS011;53705;49.860;8.744;2023-03-31T13:54:43;3.78;;;0.70;;
66802;SDS011;53705;49.860;8.744;2023-03-31T13:57:46;2.78;;;0.47;;
66802;SDS011;53705;49.860;8.744;2023-03-31T14:00:37;3.28;;;0.80;;
66802;SDS011;53705;49.860;8.744;2023-03-31T14:03:29;3.17;;;0.60;;
66802;SDS011;53705;49.860;8.744;2023-03-31T14:06:19;7.13;;;1.75;;
66802;SDS011;53705;49.860;8.744;2023-03-31T14:09:07;8.10;;;1.83;;
66802;SDS011;53705;49.860;8.744;2023-03-31T14:11:52;4.00;;;0.70;;
66802;SDS011;53705;49.860;8.744;2023-03-31T14:14:39;2.50;;;1.13;;
66802;SDS011;53705;49.860;8.744;2023-03-31T14:17:25;2.13;;;0.75;;
66802;SDS011;53705;49.860;8.744;2023-03-31T14:20:17;2.22;;;0.50;;
66802;SDS011;53705;49.860;8.744;2023-03-31T14:23:09;3.25;;;0.55;;
66802;SDS011;53705;49.860;8.744;2023-03-31T14:25:58;3.55;;;0.68;;
66802;SDS011;53705;49.860;8.744;2023-03-31T14:28:48;2.67;;;1.08;;
66802;SDS011;53705;49.860;8.744;2023-03-31T14:31:37;4.25;;;1.02;;
66802;SDS011;53705;49.860;8.744;2023-03-31T14:34:31;3.00;;;1.00;;
66802;SDS011;53705;49.860;8.744;2023-03-31T14:37:20;5.22;;;1.00;;
66802;SDS011;53705;49.860;8.744;2023-03-31T14:40:09;3.42;;;1.88;;
66802;SDS011;53705;49.860;8.744;2023-03-31T14:42:56;4.05;;;1.05;;
66802;SDS011;53705;49.860;8.744;2023-03-31T14:45:42;2.47;;;0.80;;
66802;SDS011;53705;49.860;8.744;2023-03-31T14:48:27;3.35;;;1.30;;
66802;SDS011;53705;49.860;8.744;2023-03-31T14:51:13;3.60;;;0.63;;
66802;SDS011;53705;49.860;8.744;2023-03-31T14:54:00;7.85;;;0.93;;
66802;SDS011;53705;49.860;8.744;2023-03-31T14:56:46;4.50;;;0.82;;
66802;SDS011;53705;49.860;8.744;2023-03-31T14:59:33;4.30;;;1.15;;
66802;SDS011;53705;49.860;8.744;2023-03-31T15:02:22;2.92;;;1.27;;
66802;SDS011;53705;49.860;8.744;2023-03-31T15:05:17;5.20;;;1.60;;
66802;SDS011;53705;49.860;8.744;2023-03-31T15:08:05;8.20;;;2.17;;
66802;SDS011;53705;49.860;8.744;2023-03-31T15:10:53;9.45;;;2.72;;
66802;SDS011;53705;49.860;8.744;2023-03-31T15:13:39;3.53;;;0.90;;
66802;SDS011;53705;49.860;8.744;2023-03-31T15:16:33;8.32;;;1.27;;
66802;SDS011;53705;49.860;8.744;2023-03-31T15:19:21;6.43;;;1.20;;
66802;SDS011;53705;49.860;8.744;2023-03-31T15:22:09;2.88;;;0.93;;
66802;SDS011;53705;49.860;8.744;2023-03-31T15:24:56;2.38;;;0.75;;
66802;SDS011;53705;49.860;8.744;2023-03-31T15:27:43;2.38;;;0.15;;
66802;SDS011;53705;49.860;8.744;2023-03-31T15:30:29;1.25;;;0.45;;
66802;SDS011;53705;49.860;8.744;2023-03-31T15:33:16;2.92;;;1.13;;
66802;SDS011;53705;49.860;8.744;2023-03-31T15:36:02;1.85;;;0.68;;
66802;SDS011;53705;49.860;8.744;2023-03-31T15:38:51;2.42;;;1.05;;
66802;SDS011;53705;49.860;8.744;2023-03-31T15:41:38;4.65;;;0.88;;
66802;SDS011;53705;49.860;8.744;2023-03-31T15:44:29;1.77;;;0.60;;
66802;SDS011;53705;49.860;8.744;2023-03-31T15:47:19;1.67;;;0.85;;
66802;SDS011;53705;49.860;8.744;2023-03-31T15:50:09;2.35;;;0.75;;
66802;SDS011;53705;49.860;8.744;2023-03-31T15:52:56;2.58;;;0.85;;
66802;SDS011;53705;49.860;8.744;2023-03-31T15:55:41;1.77;;;0.90;;
66802;SDS011;53705;49.860;8.744;2023-03-31T16:01:28;1.65;;;0.75;;
66802;SDS011;53705;49.860;8.744;2023-03-31T16:04:15;3.58;;;0.85;;
66802;SDS011;53705;49.860;8.744;2023-03-31T16:07:01;3.42;;;1.58;;
66802;SDS011;53705;49.860;8.744;2023-03-31T16:09:48;3.90;;;0.85;;
66802;SDS011;53705;49.860;8.744;2023-03-31T16:12:36;3.42;;;0.70;;
66802;SDS011;53705;49.860;8.744;2023-03-31T16:15:28;3.92;;;0.85;;
66802;SDS011;53705;49.860;8.744;2023-03-31T16:18:16;3.70;;;1.38;;
66802;SDS011;53705;49.860;8.744;2023-03-31T16:21:03;6.47;;;1.15;;
66802;SDS011;53705;49.860;8.744;2023-03-31T16:23:49;4.05;;;0.90;;
66802;SDS011;53705;49.860;8.744;2023-03-31T16:26:36;4.18;;;0.95;;
66802;SDS011;53705;49.860;8.744;2023-03-31T16:29:21;5.65;;;1.90;;
66802;SDS011;53705;49.860;8.744;2023-03-31T16:32:08;4.25;;;1.85;;
66802;SDS011;53705;49.860;8.744;2023-03-31T16:34:56;5.45;;;0.93;;
66802;SDS011;53705;49.860;8.744;2023-03-31T16:37:41;3.25;;;1.75;;
66802;SDS011;53705;49.860;8.744;2023-03-31T16:40:27;3.63;;;0.73;;
66802;SDS011;53705;49.860;8.744;2023-03-31T16:43:13;8.40;;;1.63;;
66802;SDS011;53705;49.860;8.744;2023-03-31T16:45:58;3.13;;;1.05;;
66802;SDS011;53705;49.860;8.744;2023-03-31T16:48:44;3.80;;;0.82;;
66802;SDS011;53705;49.860;8.744;2023-03-31T16:51:31;7.28;;;1.25;;
66802;SDS011;53705;49.860;8.744;2023-03-31T16:54:16;5.78;;;0.80;;
66802;SDS011;53705;49.860;8.744;2023-03-31T16:57:01;5.30;;;1.38;;
66802;SDS011;53705;49.860;8.744;2023-03-31T16:59:46;5.72;;;1.20;;
66802;SDS011;53705;49.860;8.744;2023-03-31T17:02:32;4.63;;;1.48;;
66802;SDS011;53705;49.860;8.744;2023-03-31T17:05:17;7.75;;;1.20;;
66802;SDS011;53705;49.860;8.744;2023-03-31T17:08:04;3.80;;;0.75;;
66802;SDS011;53705;49.860;8.744;2023-03-31T17:10:52;6.55;;;1.02;;
66802;SDS011;53705;49.860;8.744;2023-03-31T17:13:38;4.72;;;0.68;;
66802;SDS011;53705;49.860;8.744;2023-03-31T17:16:23;8.52;;;1.92;;
66802;SDS011;53705;49.860;8.744;2023-03-31T17:19:08;7.03;;;1.27;;
66802;SDS011;53705;49.860;8.744;2023-03-31T17:21:53;6.82;;;2.42;;
66802;SDS011;53705;49.860;8.744;2023-03-31T17:24:40;5.88;;;1.25;;
66802;SDS011;53705;49.860;8.744;2023-03-31T17:27:25;3.30;;;1.38;;
66802;SDS011;53705;49.860;8.744;2023-03-31T17:30:11;5.80;;;0.65;;
66802;SDS011;53705;49.860;8.744;2023-03-31T17:32:56;3.00;;;1.35;;
66802;SDS011;53705;49.860;8.744;2023-03-31T17:35:43;7.00;;;1.50;;
66802;SDS011;53705;49.860;8.744;2023-03-31T17:38:28;3.95;;;1.10;;
66802;SDS011;53705;49.860;8.744;2023-03-31T17:41:14;3.80;;;0.52;;
66802;SDS011;53705;49.860;8.744;2023-03-31T17:44:00;7.50;;;1.20;;